createdAt,value
2022-10-04T17:58:30.797Z,1.85
2022-10-04T18:01:07.941Z,1.70
2022-10-04T18:03:52.581Z,1.60
2022-10-04T18:06:43.272Z,1.60
2022-10-04T18:09:22.613Z,1.20
2022-10-04T18:11:53.152Z,1.48
2022-10-04T18:14:39.288Z,1.40
2022-10-04T18:17:10.489Z,1.50
2022-10-04T18:19:52.420Z,1.38
2022-10-04T18:22:21.626Z,1.90
2022-10-04T18:25:08.947Z,1.42
2022-10-04T18:27:49.498Z,1.38
2022-10-04T18:30:20.717Z,1.63
2022-10-04T18:32:52.676Z,1.30
2022-10-04T18:35:27.161Z,2.25
2022-10-04T18:37:57.117Z,2.00
2022-10-04T18:40:27.238Z,1.80
2022-10-04T18:42:58.989Z,1.58
2022-10-04T18:45:31.805Z,1.80
2022-10-04T18:48:14.326Z,1.45
2022-10-04T18:50:47.456Z,1.77
2022-10-04T18:53:40.934Z,2.00
2022-10-04T18:56:09.668Z,1.67
2022-10-04T18:59:27.366Z,1.50
2022-10-04T19:02:09.358Z,1.58
2022-10-04T19:04:46.128Z,1.08
2022-10-04T19:07:18.399Z,1.75
2022-10-04T19:09:54.261Z,1.30
2022-10-04T19:12:45.159Z,1.55
2022-10-04T19:15:25.389Z,1.33
2022-10-04T19:18:27.638Z,1.05
2022-10-04T19:21:23.929Z,1.13
2022-10-04T19:24:30.390Z,1.00
2022-10-04T19:27:10.800Z,1.15
2022-10-04T19:30:14.660Z,1.00
2022-10-04T19:32:57.686Z,1.00
2022-10-04T19:35:37.934Z,0.90
2022-10-04T19:38:23.321Z,1.08
2022-10-04T19:41:13.514Z,1.25
2022-10-04T19:44:03.797Z,0.65
2022-10-04T19:46:53.721Z,1.02
2022-10-04T19:49:26.312Z,0.68
2022-10-04T19:52:02.576Z,0.40
2022-10-04T19:54:40.308Z,0.60
2022-10-04T19:57:15.617Z,0.60
2022-10-04T19:59:49.028Z,0.40
2022-10-04T20:02:17.805Z,0.50
2022-10-04T20:04:49.454Z,0.63
2022-10-04T20:07:28.114Z,0.50
2022-10-04T20:10:16.996Z,0.68
2022-10-04T20:13:14.044Z,0.50
2022-10-04T20:15:43.186Z,0.60
2022-10-04T20:18:32.376Z,0.50
2022-10-04T20:21:00.570Z,0.55
2022-10-04T20:23:39.674Z,0.70
2022-10-04T20:26:53.325Z,0.60
2022-10-04T20:29:53.776Z,2.55
2022-10-04T20:32:27.412Z,0.68
2022-10-04T20:35:00.383Z,0.70
2022-10-04T20:37:46.020Z,0.70
2022-10-04T20:40:22.813Z,0.65
2022-10-04T20:43:15.108Z,0.50
2022-10-04T20:45:55.655Z,0.60
2022-10-04T20:48:28.457Z,0.70
2022-10-04T20:50:57.040Z,0.65
2022-10-04T20:53:31.056Z,0.60
2022-10-04T20:56:25.381Z,0.60
2022-10-04T20:58:56.518Z,0.40
2022-10-04T21:01:39.422Z,0.55
2022-10-04T21:04:50.681Z,0.60
2022-10-04T21:07:23.326Z,0.50
2022-10-04T21:09:53.933Z,0.70
2022-10-04T21:12:33.270Z,0.50
2022-10-04T21:15:17.978Z,0.40
2022-10-04T21:18:12.624Z,0.50
2022-10-04T21:20:46.083Z,0.50
2022-10-04T21:23:32.124Z,0.45
2022-10-04T21:26:22.060Z,0.40
2022-10-04T21:28:54.740Z,0.50
2022-10-04T21:31:22.258Z,0.60
2022-10-04T21:33:50.109Z,0.50
2022-10-04T21:36:17.696Z,0.85
2022-10-04T21:38:45.171Z,0.70
2022-10-04T21:41:12.643Z,1.02
2022-10-04T21:43:39.885Z,0.60
2022-10-04T21:46:07.433Z,0.50
2022-10-04T21:48:34.648Z,0.57
2022-10-04T21:51:01.400Z,0.40
2022-10-04T21:53:28.386Z,0.90
2022-10-04T21:55:55.240Z,0.70
2022-10-04T21:58:22.131Z,0.57
2022-10-04T22:00:49.150Z,0.60
2022-10-04T22:03:16.213Z,0.60
2022-10-04T22:05:43.108Z,0.60
2022-10-04T22:08:09.966Z,0.70
2022-10-04T22:10:36.968Z,0.73
2022-10-04T22:13:03.840Z,0.60
2022-10-04T22:15:30.734Z,0.52
2022-10-04T22:17:57.728Z,0.70
2022-10-04T22:20:25.756Z,0.50
2022-10-04T22:22:57.728Z,0.52
2022-10-04T22:25:26.908Z,0.70
2022-10-04T22:27:54.132Z,0.70
2022-10-04T22:30:23.211Z,0.60
2022-10-04T22:32:51.140Z,0.80
2022-10-04T22:35:20.526Z,0.80
2022-10-04T22:37:48.858Z,0.70
2022-10-04T22:40:21.697Z,0.60
2022-10-04T22:42:57.085Z,0.50
2022-10-04T22:45:27.206Z,0.65
2022-10-04T22:47:57.236Z,0.40
2022-10-04T22:50:36.218Z,0.60
2022-10-04T22:53:17.020Z,0.70
2022-10-04T22:55:43.818Z,0.40
2022-10-04T22:58:14.959Z,0.50
2022-10-04T23:00:43.053Z,0.45
2022-10-04T23:03:25.023Z,0.30
2022-10-04T23:05:51.914Z,0.30
2022-10-04T23:08:18.759Z,0.30
2022-10-04T23:10:46.368Z,0.65
2022-10-04T23:13:13.258Z,0.55
2022-10-04T23:15:40.328Z,0.82
2022-10-04T23:18:16.115Z,0.60
2022-10-04T23:20:44.194Z,0.52
2022-10-04T23:23:21.486Z,0.80
2022-10-04T23:25:49.493Z,0.70
2022-10-04T23:28:19.487Z,0.60
2022-10-04T23:30:55.783Z,0.70
2022-10-04T23:33:24.156Z,0.90
2022-10-04T23:35:51.560Z,0.85
2022-10-04T23:38:21.462Z,1.00
2022-10-04T23:40:48.301Z,0.50
2022-10-04T23:43:25.302Z,0.68
2022-10-04T23:45:53.991Z,0.93
2022-10-04T23:48:32.451Z,0.93
2022-10-04T23:51:01.073Z,1.20
2022-10-04T23:53:30.849Z,0.80
2022-10-04T23:56:01.992Z,0.85
2022-10-04T23:58:39.521Z,0.90
